createdAt,value
2019-03-08T00:01:48.310Z,30.37
2019-03-08T00:04:18.581Z,32.25
2019-03-08T00:06:49.790Z,30.92
2019-03-08T00:09:20.548Z,31.45
2019-03-08T00:11:51.793Z,30.62
2019-03-08T00:14:22.943Z,31.45
2019-03-08T00:16:54.391Z,29.27
2019-03-08T00:19:26.026Z,31.70
2019-03-08T00:21:56.375Z,30.80
2019-03-08T00:24:28.117Z,30.75
2019-03-08T00:26:58.543Z,29.15
2019-03-08T00:29:29.068Z,30.92
2019-03-08T00:32:02.173Z,29.12
2019-03-08T00:34:33.403Z,29.10
2019-03-08T00:37:04.857Z,29.63
2019-03-08T00:39:36.106Z,28.65
2019-03-08T00:42:07.034Z,27.67
2019-03-08T00:44:38.176Z,26.20
2019-03-08T00:47:09.321Z,26.95
2019-03-08T00:49:39.954Z,25.95
2019-03-08T00:52:12.527Z,25.52
2019-03-08T00:54:43.052Z,26.30
2019-03-08T00:57:13.783Z,26.12
2019-03-08T00:59:44.410Z,27.62
2019-03-08T01:02:15.660Z,26.10
2019-03-08T01:04:47.001Z,26.97
2019-03-08T01:07:17.634Z,26.15
2019-03-08T01:09:48.365Z,27.60
2019-03-08T01:12:19.202Z,26.68
2019-03-08T01:14:49.938Z,27.73
2019-03-08T01:17:21.588Z,26.33
2019-03-08T01:19:51.897Z,29.12
2019-03-08T01:22:22.576Z,27.65
2019-03-08T01:24:53.274Z,26.97
2019-03-08T01:27:24.010Z,27.37
2019-03-08T01:29:54.948Z,28.77
2019-03-08T01:32:25.880Z,29.05
2019-03-08T01:34:56.739Z,30.25
2019-03-08T01:37:29.189Z,29.00
2019-03-08T01:39:59.717Z,30.55
2019-03-08T01:42:31.851Z,30.52
2019-03-08T01:45:03.744Z,30.02
2019-03-08T01:47:34.163Z,30.62
2019-03-08T01:50:06.677Z,30.65
2019-03-08T01:52:37.231Z,31.37
2019-03-08T01:55:08.038Z,31.02
2019-03-08T01:57:38.590Z,32.58
2019-03-08T02:00:13.301Z,32.78
2019-03-08T02:02:43.577Z,31.25
2019-03-08T02:05:14.308Z,33.42
2019-03-08T02:07:45.453Z,34.27
2019-03-08T02:10:16.610Z,33.40
2019-03-08T02:12:47.534Z,34.13
2019-03-08T02:15:21.000Z,33.88
2019-03-08T02:17:51.557Z,33.88
2019-03-08T02:20:23.401Z,33.83
2019-03-08T02:22:53.979Z,32.93
2019-03-08T02:25:24.493Z,33.78
2019-03-08T02:27:55.202Z,31.37
2019-03-08T02:30:26.146Z,33.38
2019-03-08T02:32:56.975Z,34.60
2019-03-08T02:35:28.309Z,32.48
2019-03-08T02:37:59.877Z,33.23
2019-03-08T02:40:35.522Z,33.33
2019-03-08T02:43:14.762Z,33.53
2019-03-08T02:45:45.792Z,32.93
2019-03-08T02:48:17.242Z,32.65
2019-03-08T02:50:47.605Z,33.40
2019-03-08T02:53:18.819Z,33.67
2019-03-08T02:55:49.543Z,30.72
2019-03-08T02:58:20.171Z,31.90
2019-03-08T03:00:51.724Z,31.57
2019-03-08T03:03:22.457Z,31.77
2019-03-08T03:05:53.802Z,28.65
2019-03-08T03:08:25.439Z,29.65
2019-03-08T03:10:56.394Z,30.88
2019-03-08T03:13:29.278Z,21.55
2019-03-08T03:15:59.909Z,29.92
2019-03-08T03:18:30.638Z,30.55
2019-03-08T03:21:01.374Z,28.07
2019-03-08T03:23:32.615Z,28.12
2019-03-08T03:26:03.237Z,28.35
2019-03-08T03:28:35.212Z,27.93
2019-03-08T03:31:05.867Z,27.73
2019-03-08T03:33:37.491Z,27.22
2019-03-08T03:36:08.223Z,27.13
2019-03-08T03:38:39.558Z,24.72
2019-03-08T03:41:09.996Z,24.65
2019-03-08T03:43:41.547Z,25.25
2019-03-08T03:46:12.348Z,22.85
2019-03-08T03:48:43.115Z,23.20
2019-03-08T03:51:14.252Z,24.07
2019-03-08T03:53:47.910Z,22.58
2019-03-08T03:56:18.484Z,22.35
2019-03-08T03:58:50.756Z,22.32
2019-03-08T04:01:27.831Z,23.07
2019-03-08T04:03:58.803Z,21.55
2019-03-08T04:06:30.091Z,21.82
2019-03-08T04:09:01.362Z,22.95
2019-03-08T04:11:31.873Z,22.05
2019-03-08T04:14:02.620Z,21.87
2019-03-08T04:16:35.608Z,22.50
2019-03-08T04:19:06.344Z,22.98
2019-03-08T04:21:36.967Z,21.85
2019-03-08T04:24:07.703Z,21.60
2019-03-08T04:26:39.104Z,21.85
2019-03-08T04:29:09.579Z,21.07
2019-03-08T04:31:40.312Z,22.00
2019-03-08T04:34:10.835Z,21.97
2019-03-08T04:36:41.466Z,21.77
2019-03-08T04:39:12.098Z,21.07
2019-03-08T04:41:42.724Z,21.87
2019-03-08T04:44:13.458Z,21.05
2019-03-08T04:46:44.296Z,21.73
2019-03-08T04:49:16.030Z,21.48
2019-03-08T04:51:49.549Z,20.27
2019-03-08T04:54:20.208Z,19.40
2019-03-08T04:56:52.155Z,20.37
2019-03-08T04:59:22.978Z,19.35
2019-03-08T05:01:53.486Z,19.48
2019-03-08T05:04:24.235Z,17.82
2019-03-08T05:06:54.865Z,19.27
2019-03-08T05:09:28.155Z,19.10
2019-03-08T05:11:58.461Z,18.73
2019-03-08T05:14:30.342Z,17.52
2019-03-08T05:17:03.354Z,18.77
2019-03-08T05:19:34.470Z,18.55
2019-03-08T05:22:06.118Z,18.25
2019-03-08T05:24:36.819Z,19.50
2019-03-08T05:27:08.270Z,19.75
2019-03-08T05:29:38.728Z,18.82
2019-03-08T05:32:09.561Z,19.75
2019-03-08T05:34:40.704Z,18.65
2019-03-08T05:37:11.432Z,19.37
2019-03-08T05:39:42.068Z,19.98
2019-03-08T05:42:12.574Z,19.95
2019-03-08T05:44:44.350Z,19.15
2019-03-08T05:47:14.792Z,19.40
2019-03-08T05:49:45.500Z,19.73
2019-03-08T05:52:17.068Z,20.20
2019-03-08T05:54:47.392Z,19.73
2019-03-08T05:57:18.281Z,19.45
2019-03-08T05:59:48.978Z,21.15
2019-03-08T06:02:19.887Z,20.60
2019-03-08T06:04:51.950Z,22.87
2019-03-08T06:07:22.378Z,21.33
2019-03-08T06:09:53.109Z,21.30
2019-03-08T06:12:23.584Z,20.92
2019-03-08T06:14:54.571Z,20.30
2019-03-08T06:17:26.742Z,20.65
2019-03-08T06:19:57.470Z,22.35
2019-03-08T06:22:30.863Z,21.82
2019-03-08T06:25:01.408Z,21.87
2019-03-08T06:27:32.639Z,21.85
2019-03-08T06:30:03.253Z,21.73
2019-03-08T06:32:33.932Z,20.15
2019-03-08T06:35:06.080Z,19.92
2019-03-08T06:37:37.717Z,21.33
2019-03-08T06:40:13.265Z,19.82
2019-03-08T06:42:45.428Z,19.15
2019-03-08T06:45:17.106Z,19.00
2019-03-08T06:47:47.815Z,19.67
2019-03-08T06:50:18.548Z,18.07
2019-03-08T06:52:49.176Z,18.77
2019-03-08T06:55:20.430Z,18.00
2019-03-08T06:57:59.312Z,18.92
2019-03-08T07:00:43.320Z,18.57
2019-03-08T07:03:14.921Z,19.65
2019-03-08T07:05:45.503Z,18.30
2019-03-08T07:08:16.203Z,17.98
2019-03-08T07:10:46.628Z,19.15
2019-03-08T07:13:18.384Z,18.15
2019-03-08T07:15:49.004Z,18.45
2019-03-08T07:18:19.644Z,17.15
2019-03-08T07:20:52.117Z,16.73
2019-03-08T07:23:28.097Z,18.05
2019-03-08T07:26:10.884Z,17.37
2019-03-08T07:28:59.986Z,18.00
2019-03-08T07:31:35.097Z,17.10
2019-03-08T07:34:11.090Z,18.20
2019-03-08T07:36:59.776Z,17.07
2019-03-08T07:39:38.314Z,19.02
2019-03-08T07:42:26.657Z,17.20
2019-03-08T07:45:15.105Z,15.90
2019-03-08T07:48:03.861Z,17.20
2019-03-08T07:50:36.129Z,15.65
2019-03-08T07:53:11.347Z,15.93
2019-03-08T07:55:46.551Z,13.93
2019-03-08T07:58:26.026Z,14.05
2019-03-08T08:01:16.433Z,14.23
2019-03-08T08:03:54.845Z,14.03
2019-03-08T08:06:45.044Z,14.60
2019-03-08T08:09:22.933Z,14.13
2019-03-08T08:12:12.014Z,12.93
2019-03-08T08:14:54.601Z,13.20
2019-03-08T08:17:29.644Z,12.05
2019-03-08T08:20:15.918Z,11.68
2019-03-08T08:22:56.688Z,12.55
2019-03-08T08:25:36.539Z,12.00
2019-03-08T08:28:06.390Z,11.10
2019-03-08T08:30:48.149Z,10.70
2019-03-08T08:33:26.461Z,10.53
2019-03-08T08:35:58.833Z,8.95
2019-03-08T08:38:36.815Z,9.00
2019-03-08T08:41:09.104Z,9.15
2019-03-08T08:43:59.803Z,8.10
2019-03-08T08:46:42.084Z,7.97
2019-03-08T08:49:29.530Z,7.10
2019-03-08T08:52:05.283Z,8.30
2019-03-08T08:54:44.207Z,7.65
2019-03-08T08:57:22.211Z,7.75
2019-03-08T08:59:56.941Z,7.83
2019-03-08T09:02:45.220Z,8.35
2019-03-08T09:05:20.639Z,9.45
2019-03-08T09:07:52.888Z,7.47
2019-03-08T09:10:38.162Z,6.87
2019-03-08T09:13:12.746Z,6.30
2019-03-08T09:15:57.852Z,6.47
2019-03-08T09:18:46.598Z,7.05
2019-03-08T09:21:24.507Z,6.83
2019-03-08T09:24:09.937Z,6.58
2019-03-08T09:26:49.642Z,6.85
2019-03-08T09:29:22.280Z,6.25
2019-03-08T09:32:10.345Z,8.48
2019-03-08T09:34:46.659Z,6.15
2019-03-08T09:37:18.979Z,6.35
2019-03-08T09:40:03.001Z,5.92
2019-03-08T09:42:48.399Z,7.20
2019-03-08T09:45:20.867Z,7.20
2019-03-08T09:48:08.394Z,7.95
2019-03-08T09:50:46.300Z,7.95
2019-03-08T09:53:18.660Z,7.03
2019-03-08T09:55:53.786Z,7.37
2019-03-08T09:58:41.870Z,7.58
2019-03-08T10:01:23.239Z,7.65
2019-03-08T10:03:57.665Z,6.35
2019-03-08T10:06:41.936Z,6.80
2019-03-08T10:09:15.075Z,7.12
2019-03-08T10:11:52.680Z,6.40
2019-03-08T10:14:26.374Z,6.60
2019-03-08T10:16:58.922Z,7.90
2019-03-08T10:19:40.554Z,7.35
2019-03-08T10:22:29.102Z,6.97
2019-03-08T10:25:07.397Z,7.12
2019-03-08T10:27:45.304Z,7.35
2019-03-08T10:30:29.436Z,7.08
2019-03-08T10:33:18.585Z,6.95
2019-03-08T10:36:07.436Z,7.47
2019-03-08T10:38:42.797Z,7.67
2019-03-08T10:41:16.817Z,7.33
2019-03-08T10:44:08.678Z,6.92
2019-03-08T10:46:41.377Z,6.80
2019-03-08T10:49:31.616Z,6.72
2019-03-08T10:52:17.403Z,7.12
2019-03-08T10:54:43.429Z,7.58
2019-03-08T10:57:18.045Z,6.45
2019-03-08T11:00:05.390Z,7.05
2019-03-08T11:02:43.369Z,6.70
2019-03-08T11:05:35.914Z,6.85
2019-03-08T11:08:11.764Z,6.90
2019-03-08T11:10:49.869Z,6.85
2019-03-08T11:13:43.192Z,8.60
2019-03-08T11:16:17.725Z,7.05
2019-03-08T11:18:50.744Z,7.37
2019-03-08T11:21:28.951Z,7.03
2019-03-08T11:24:10.650Z,7.80
2019-03-08T11:26:49.563Z,7.87
2019-03-08T11:29:38.418Z,7.95
2019-03-08T11:32:23.112Z,7.28
2019-03-08T11:34:57.186Z,8.33
2019-03-08T11:37:32.533Z,7.33
2019-03-08T11:40:04.360Z,8.63
2019-03-08T11:42:40.872Z,7.90
2019-03-08T11:45:26.971Z,7.95
2019-03-08T11:48:00.227Z,7.80
2019-03-08T11:50:48.726Z,7.85
2019-03-08T11:53:21.746Z,7.55
2019-03-08T11:55:56.816Z,8.03
2019-03-08T11:58:31.841Z,9.43
2019-03-08T12:01:13.404Z,8.50
2019-03-08T12:03:55.030Z,9.63
2019-03-08T12:06:29.537Z,10.75
2019-03-08T12:09:11.634Z,10.98
2019-03-08T12:11:46.399Z,11.12
2019-03-08T12:14:18.738Z,9.50
2019-03-08T12:16:51.104Z,11.08
2019-03-08T12:19:39.230Z,10.98
2019-03-08T12:22:11.869Z,8.60
2019-03-08T12:25:01.210Z,9.18
2019-03-08T12:27:40.021Z,8.75
2019-03-08T12:30:28.257Z,8.40
2019-03-08T12:33:00.424Z,8.53
2019-03-08T12:35:36.299Z,9.18
2019-03-08T12:38:17.657Z,8.90
2019-03-08T12:41:01.800Z,8.08
2019-03-08T12:43:34.579Z,8.30
2019-03-08T12:46:16.881Z,8.15
2019-03-08T12:48:53.420Z,8.25
2019-03-08T12:51:41.803Z,7.95
2019-03-08T12:54:25.941Z,7.28
2019-03-08T12:57:14.302Z,7.22
2019-03-08T12:59:48.841Z,7.58
2019-03-08T13:02:29.556Z,7.83
2019-03-08T13:05:05.230Z,7.75
2019-03-08T13:07:46.755Z,7.42
2019-03-08T13:10:17.450Z,6.90
2019-03-08T13:12:49.514Z,7.47
2019-03-08T13:15:22.400Z,6.47
2019-03-08T13:17:53.739Z,7.45
2019-03-08T13:20:25.287Z,7.92
2019-03-08T13:22:57.456Z,6.97
2019-03-08T13:25:28.549Z,7.45
2019-03-08T13:28:00.969Z,7.10
2019-03-08T13:30:31.501Z,7.80
2019-03-08T13:33:02.229Z,8.10
2019-03-08T13:35:33.576Z,9.13
2019-03-08T13:38:06.907Z,10.03
2019-03-08T13:40:37.810Z,8.33
2019-03-08T13:43:08.744Z,7.90
2019-03-08T13:45:39.584Z,13.58
2019-03-08T13:48:10.279Z,8.55
2019-03-08T13:50:42.885Z,7.62
2019-03-08T13:53:13.417Z,8.75
2019-03-08T13:55:44.545Z,8.85
2019-03-08T13:58:17.340Z,7.85
2019-03-08T14:00:48.681Z,9.80
2019-03-08T14:03:19.415Z,8.38
2019-03-08T14:05:51.476Z,7.95
2019-03-08T14:08:22.416Z,7.85
2019-03-08T14:10:53.170Z,7.28
2019-03-08T14:13:24.702Z,7.75
2019-03-08T14:15:55.740Z,7.20
2019-03-08T14:18:26.166Z,7.95
2019-03-08T14:20:57.719Z,7.37
2019-03-08T14:23:28.249Z,6.42
2019-03-08T14:25:59.077Z,6.03
2019-03-08T14:28:29.707Z,6.78
2019-03-08T14:31:18.673Z,7.50
2019-03-08T14:33:49.297Z,6.87
2019-03-08T14:36:20.148Z,6.05
2019-03-08T14:38:51.683Z,5.65
2019-03-08T14:41:23.751Z,5.95
2019-03-08T14:44:08.511Z,5.47
2019-03-08T14:46:40.850Z,5.40
2019-03-08T14:49:11.718Z,5.90
2019-03-08T14:51:48.278Z,7.83
2019-03-08T14:54:18.093Z,7.40
2019-03-08T14:56:49.750Z,8.15
2019-03-08T14:59:20.216Z,8.68
2019-03-08T15:01:51.523Z,7.80
2019-03-08T15:04:22.163Z,7.85
2019-03-08T15:06:53.905Z,7.20
2019-03-08T15:09:29.114Z,6.67
2019-03-08T15:11:59.534Z,5.80
2019-03-08T15:14:30.175Z,6.50
2019-03-08T15:17:09.092Z,6.22
2019-03-08T15:19:40.126Z,6.35
2019-03-08T15:22:10.287Z,5.90
2019-03-08T15:24:40.912Z,6.87
2019-03-08T15:27:12.570Z,6.72
2019-03-08T15:29:43.093Z,5.90
2019-03-08T15:32:15.366Z,6.20
2019-03-08T15:34:46.013Z,5.92
2019-03-08T15:37:17.346Z,6.33
2019-03-08T15:39:47.977Z,6.75
2019-03-08T15:42:19.144Z,6.08
2019-03-08T15:44:51.653Z,6.40
2019-03-08T15:47:23.982Z,5.90
2019-03-08T15:49:55.710Z,6.20
2019-03-08T15:52:28.399Z,6.08
2019-03-08T15:54:59.053Z,6.42
2019-03-08T15:57:29.863Z,5.97
2019-03-08T16:00:02.123Z,5.95
2019-03-08T16:02:32.743Z,5.47
2019-03-08T16:05:03.937Z,6.80
2019-03-08T16:07:37.710Z,5.95
2019-03-08T16:10:13.859Z,6.65
2019-03-08T16:12:45.931Z,6.58
2019-03-08T16:15:16.448Z,6.30
2019-03-08T16:17:47.206Z,10.15
2019-03-08T16:20:21.752Z,6.47
2019-03-08T16:22:52.136Z,6.62
2019-03-08T16:25:22.761Z,7.35
2019-03-08T16:27:53.632Z,7.25
2019-03-08T16:30:34.263Z,7.08
2019-03-08T16:33:30.401Z,7.78
2019-03-08T16:36:19.043Z,8.10
2019-03-08T16:38:54.896Z,8.05
2019-03-08T16:41:30.039Z,8.28
2019-03-08T16:44:02.291Z,8.38
2019-03-08T16:46:47.122Z,8.25
2019-03-08T16:49:28.443Z,8.83
2019-03-08T16:52:18.149Z,8.45
2019-03-08T16:55:01.854Z,8.95
2019-03-08T16:57:43.441Z,8.30
2019-03-08T17:00:15.718Z,8.23
2019-03-08T17:02:48.293Z,9.48
2019-03-08T17:05:36.396Z,9.35
2019-03-08T17:08:14.637Z,9.20
2019-03-08T17:10:49.569Z,9.20
2019-03-08T17:13:21.944Z,6.97
2019-03-08T17:16:10.698Z,7.10
2019-03-08T17:18:43.483Z,7.12
2019-03-08T17:21:32.845Z,5.85
2019-03-08T17:24:11.252Z,5.60
2019-03-08T17:26:50.187Z,5.83
2019-03-08T17:29:36.740Z,5.60
2019-03-08T17:32:10.896Z,5.33
2019-03-08T17:34:59.443Z,5.37
2019-03-08T17:37:44.002Z,6.12
2019-03-08T17:40:32.343Z,5.70
2019-03-08T17:43:13.446Z,5.78
2019-03-08T17:45:46.513Z,6.42
2019-03-08T17:48:37.549Z,4.97
2019-03-08T17:51:10.298Z,6.00
2019-03-08T17:54:00.286Z,6.55
2019-03-08T17:56:35.270Z,7.60
2019-03-08T17:59:09.958Z,6.58
2019-03-08T18:01:44.862Z,7.17
2019-03-08T18:04:19.793Z,7.33
2019-03-08T18:07:01.078Z,7.62
2019-03-08T18:09:42.669Z,7.65
2019-03-08T18:12:18.565Z,8.13
2019-03-08T18:14:56.861Z,8.10
2019-03-08T18:17:38.190Z,7.37
2019-03-08T18:20:11.327Z,7.12
2019-03-08T18:23:00.767Z,7.12
2019-03-08T18:25:32.933Z,7.45
2019-03-08T18:28:21.082Z,6.85
2019-03-08T18:30:53.862Z,6.33
2019-03-08T18:33:32.051Z,6.72
2019-03-08T18:36:19.383Z,5.80
2019-03-08T18:38:55.104Z,5.50
2019-03-08T18:41:36.412Z,5.80
2019-03-08T18:44:11.795Z,5.78
2019-03-08T18:46:59.590Z,5.40
2019-03-08T18:49:37.955Z,5.65
2019-03-08T18:52:19.795Z,6.08
2019-03-08T18:54:52.684Z,6.40
2019-03-08T18:57:28.116Z,4.30
2019-03-08T19:00:00.334Z,5.62
2019-03-08T19:02:41.693Z,5.85
2019-03-08T19:05:16.593Z,5.40
2019-03-08T19:07:48.453Z,6.03
2019-03-08T19:10:36.898Z,5.12
2019-03-08T19:13:22.367Z,5.37
2019-03-08T19:16:03.813Z,5.62
2019-03-08T19:18:40.388Z,5.78
2019-03-08T19:21:12.605Z,5.65
2019-03-08T19:24:00.577Z,6.10
2019-03-08T19:26:46.420Z,7.00
2019-03-08T19:32:16.049Z,6.05
2019-03-08T19:34:49.012Z,6.55
2019-03-08T19:37:23.655Z,7.25
2019-03-08T19:40:02.520Z,6.35
2019-03-08T19:42:50.825Z,7.12
2019-03-08T19:45:39.118Z,6.90
2019-03-08T19:48:17.170Z,7.30
2019-03-08T19:51:05.955Z,6.72
2019-03-08T19:53:53.355Z,7.05
2019-03-08T19:56:25.430Z,7.60
2019-03-08T19:58:57.581Z,7.47
2019-03-08T20:01:46.019Z,7.78
2019-03-08T20:04:23.926Z,8.33
2019-03-08T20:07:02.440Z,7.92
2019-03-08T20:09:34.544Z,8.03
2019-03-08T20:12:12.406Z,8.13
2019-03-08T20:14:45.004Z,7.87
2019-03-08T20:17:20.128Z,7.80
2019-03-08T20:19:52.384Z,7.85
2019-03-08T20:22:25.372Z,7.33
2019-03-08T20:25:06.896Z,7.08
2019-03-08T20:27:39.233Z,6.95
2019-03-08T20:30:25.262Z,6.95
2019-03-08T20:33:00.039Z,6.47
2019-03-08T20:35:36.508Z,7.58
2019-03-08T20:38:15.243Z,6.22
2019-03-08T20:40:54.158Z,7.25
2019-03-08T20:43:26.783Z,6.83
2019-03-08T20:46:04.525Z,6.53
2019-03-08T20:48:35.470Z,6.75
2019-03-08T20:51:06.089Z,6.10
2019-03-08T20:53:37.204Z,6.20
2019-03-08T20:56:08.484Z,6.12
2019-03-08T20:58:39.112Z,6.12
2019-03-08T21:01:10.875Z,6.00
2019-03-08T21:03:41.599Z,5.65
2019-03-08T21:06:12.682Z,5.75
2019-03-08T21:08:43.168Z,5.87
2019-03-08T21:11:15.025Z,5.42
2019-03-08T21:13:45.128Z,5.83
2019-03-08T21:16:16.291Z,5.45
2019-03-08T21:18:47.933Z,5.60
2019-03-08T21:21:18.164Z,5.72
2019-03-08T21:23:48.686Z,6.05
2019-03-08T21:26:19.317Z,5.75
2019-03-08T21:28:50.252Z,5.33
2019-03-08T21:31:21.806Z,6.30
2019-03-08T21:33:52.570Z,6.80
2019-03-08T21:36:24.397Z,5.53
2019-03-08T21:38:55.340Z,6.22
2019-03-08T21:41:26.933Z,6.40
2019-03-08T21:43:58.206Z,5.87
2019-03-08T21:46:28.656Z,5.95
2019-03-08T21:49:02.156Z,6.08
2019-03-08T21:51:32.900Z,5.70
2019-03-08T21:54:04.365Z,5.70
2019-03-08T21:56:35.951Z,6.03
2019-03-08T21:59:07.031Z,6.08
2019-03-08T22:01:38.276Z,5.87
2019-03-08T22:04:10.343Z,6.58
2019-03-08T22:06:40.782Z,5.78
2019-03-08T22:09:21.550Z,5.37
2019-03-08T22:11:52.473Z,5.97
2019-03-08T22:14:24.741Z,5.80
2019-03-08T22:16:55.266Z,5.47
2019-03-08T22:19:25.792Z,5.83
2019-03-08T22:21:56.317Z,5.60
2019-03-08T22:24:28.662Z,5.42
2019-03-08T22:26:59.306Z,5.55
2019-03-08T22:29:31.179Z,5.00
2019-03-08T22:32:01.810Z,5.35
2019-03-08T22:34:32.441Z,5.17
2019-03-08T22:37:05.017Z,4.95
2019-03-08T22:39:37.181Z,4.85
2019-03-08T22:42:07.404Z,4.65
2019-03-08T22:44:38.487Z,5.03
2019-03-08T22:47:08.893Z,5.00
2019-03-08T22:49:40.212Z,4.83
2019-03-08T22:52:10.845Z,4.62
2019-03-08T22:54:41.372Z,5.33
2019-03-08T22:57:12.308Z,4.65
2019-03-08T22:59:42.940Z,4.85
2019-03-08T23:02:13.377Z,5.30
2019-03-08T23:04:43.807Z,5.00
2019-03-08T23:07:17.924Z,4.60
2019-03-08T23:09:47.704Z,5.22
2019-03-08T23:12:18.136Z,5.03
2019-03-08T23:14:48.765Z,4.75
2019-03-08T23:17:20.049Z,4.80
2019-03-08T23:19:52.650Z,5.05
2019-03-08T23:22:23.230Z,5.05
2019-03-08T23:24:53.983Z,4.97
2019-03-08T23:27:25.942Z,4.85
2019-03-08T23:30:00.555Z,4.70
2019-03-08T23:32:32.402Z,4.60
2019-03-08T23:35:02.607Z,5.05
2019-03-08T23:37:33.255Z,4.15
2019-03-08T23:40:04.185Z,5.28
2019-03-08T23:42:34.407Z,5.28
2019-03-08T23:45:06.688Z,4.80
2019-03-08T23:47:37.817Z,4.15
2019-03-08T23:50:09.773Z,4.95
2019-03-08T23:52:40.301Z,4.72
2019-03-08T23:55:11.441Z,4.78
2019-03-08T23:57:42.876Z,5.28
